sensor_id;sensor_type;location;lat;lon;timestamp;pressure;altitude;pressure_sealevel;temperature;humidity
10606;BME280;5350;42.698;23.148;2023-04-04T00:01:07;92236.13;;;7.78;100.00
10606;BME280;5350;42.698;23.148;2023-04-04T00:03:34;92236.47;;;7.85;100.00
10606;BME280;5350;42.698;23.148;2023-04-04T00:06:01;92233.88;;;7.94;100.00
10606;BME280;5350;42.698;23.148;2023-04-04T00:08:29;92229.38;;;7.86;100.00
10606;BME280;5350;42.698;23.148;2023-04-04T00:10:56;92235.25;;;7.91;100.00
10606;BME280;5350;42.698;23.148;2023-04-04T00:13:23;92230.00;;;7.91;100.00
10606;BME280;5350;42.698;23.148;2023-04-04T00:15:51;92229.53;;;7.89;100.00
10606;BME280;5350;42.698;23.148;2023-04-04T00:18:18;92216.91;;;7.83;100.00
10606;BME280;5350;42.698;23.148;2023-04-04T00:20:45;92221.84;;;7.93;100.00
10606;BME280;5350;42.698;23.148;2023-04-04T00:23:11;92224.28;;;7.81;100.00
10606;BME280;5350;42.698;23.148;2023-04-04T00:25:39;92238.00;;;7.86;100.00
10606;BME280;5350;42.698;23.148;2023-04-04T00:28:06;92212.44;;;7.83;100.00
10606;BME280;5350;42.698;23.148;2023-04-04T00:30:33;92221.53;;;7.86;100.00
10606;BME280;5350;42.698;23.148;2023-04-04T00:33:01;92212.56;;;7.78;100.00
10606;BME280;5350;42.698;23.148;2023-04-04T00:35:27;92198.28;;;7.76;100.00
10606;BME280;5350;42.698;23.148;2023-04-04T00:37:54;92207.19;;;7.83;100.00
10606;BME280;5350;42.698;23.148;2023-04-04T00:40:21;92201.34;;;7.86;100.00
10606;BME280;5350;42.698;23.148;2023-04-04T00:42:49;92191.34;;;7.80;100.00
10606;BME280;5350;42.698;23.148;2023-04-04T00:45:16;92192.41;;;7.79;100.00
10606;BME280;5350;42.698;23.148;2023-04-04T00:47:43;92177.13;;;7.64;100.00
10606;BME280;5350;42.698;23.148;2023-04-04T00:50:10;92193.63;;;7.73;100.00
10606;BME280;5350;42.698;23.148;2023-04-04T00:52:37;92197.19;;;7.77;100.00
10606;BME280;5350;42.698;23.148;2023-04-04T00:55:04;92187.34;;;7.74;100.00
10606;BME280;5350;42.698;23.148;2023-04-04T00:57:32;92189.47;;;7.72;100.00
10606;BME280;5350;42.698;23.148;2023-04-04T01:00:02;92180.41;;;7.78;100.00
10606;BME280;5350;42.698;23.148;2023-04-04T01:02:30;92186.38;;;7.70;100.00
10606;BME280;5350;42.698;23.148;2023-04-04T01:04:57;92183.63;;;7.75;100.00
10606;BME280;5350;42.698;23.148;2023-04-04T01:07:25;92208.13;;;7.79;100.00
10606;BME280;5350;42.698;23.148;2023-04-04T01:09:55;92206.88;;;7.85;100.00
10606;BME280;5350;42.698;23.148;2023-04-04T01:12:22;92212.31;;;7.88;100.00
10606;BME280;5350;42.698;23.148;2023-04-04T01:14:49;92221.06;;;7.84;100.00
10606;BME280;5350;42.698;23.148;2023-04-04T01:17:17;92221.69;;;7.89;100.00
10606;BME280;5350;42.698;23.148;2023-04-04T01:19:50;92215.63;;;7.72;100.00
10606;BME280;5350;42.698;23.148;2023-04-04T01:22:19;92220.91;;;7.89;100.00
10606;BME280;5350;42.698;23.148;2023-04-04T01:24:48;92213.97;;;7.84;100.00
10606;BME280;5350;42.698;23.148;2023-04-04T01:27:16;92212.72;;;7.73;100.00
10606;BME280;5350;42.698;23.148;2023-04-04T01:29:43;92215.38;;;7.82;100.00
10606;BME280;5350;42.698;23.148;2023-04-04T01:32:12;92202.13;;;7.87;100.00
10606;BME280;5350;42.698;23.148;2023-04-04T01:34:44;92192.91;;;7.98;100.00
10606;BME280;5350;42.698;23.148;2023-04-04T01:37:25;92199.53;;;8.04;100.00
10606;BME280;5350;42.698;23.148;2023-04-04T01:39:55;92197.84;;;8.08;100.00
10606;BME280;5350;42.698;23.148;2023-04-04T01:42:27;92194.31;;;8.21;100.00
10606;BME280;5350;42.698;23.148;2023-04-04T01:44:54;92200.97;;;8.27;100.00
10606;BME280;5350;42.698;23.148;2023-04-04T01:47:21;92192.31;;;8.35;100.00
10606;BME280;5350;42.698;23.148;2023-04-04T01:49:49;92187.72;;;8.32;100.00
10606;BME280;5350;42.698;23.148;2023-04-04T01:52:18;92187.41;;;8.42;100.00
10606;BME280;5350;42.698;23.148;2023-04-04T01:54:44;92181.38;;;8.50;100.00
10606;BME280;5350;42.698;23.148;2023-04-04T01:57:11;92192.00;;;8.54;100.00
10606;BME280;5350;42.698;23.148;2023-04-04T01:59:39;92170.44;;;8.48;100.00
10606;BME280;5350;42.698;23.148;2023-04-04T02:02:06;92159.81;;;8.36;100.00
10606;BME280;5350;42.698;23.148;2023-04-04T02:04:33;92166.72;;;8.41;100.00
10606;BME280;5350;42.698;23.148;2023-04-04T02:06:59;92175.22;;;8.46;100.00
10606;BME280;5350;42.698;23.148;2023-04-04T02:09:26;92168.44;;;8.45;100.00
10606;BME280;5350;42.698;23.148;2023-04-04T02:11:53;92169.97;;;8.46;100.00
10606;BME280;5350;42.698;23.148;2023-04-04T02:14:20;92170.59;;;8.43;100.00
10606;BME280;5350;42.698;23.148;2023-04-04T02:16:48;92172.75;;;8.41;100.00
10606;BME280;5350;42.698;23.148;2023-04-04T02:19:15;92171.81;;;8.46;100.00
10606;BME280;5350;42.698;23.148;2023-04-04T02:21:42;92168.28;;;8.50;100.00
10606;BME280;5350;42.698;23.148;2023-04-04T02:24:08;92176.91;;;8.51;100.00
10606;BME280;5350;42.698;23.148;2023-04-04T02:26:35;92157.03;;;8.41;100.00
10606;BME280;5350;42.698;23.148;2023-04-04T02:29:02;92178.63;;;8.38;100.00
10606;BME280;5350;42.698;23.148;2023-04-04T02:31:29;92177.34;;;8.10;100.00
10606;BME280;5350;42.698;23.148;2023-04-04T02:33:57;92183.34;;;8.02;100.00
10606;BME280;5350;42.698;23.148;2023-04-04T02:36:23;92185.97;;;8.02;100.00
10606;BME280;5350;42.698;23.148;2023-04-04T02:38:50;92178.09;;;7.93;100.00
10606;BME280;5350;42.698;23.148;2023-04-04T02:41:17;92185.81;;;7.98;100.00
10606;BME280;5350;42.698;23.148;2023-04-04T02:43:43;92187.03;;;8.01;100.00
10606;BME280;5350;42.698;23.148;2023-04-04T02:46:10;92188.72;;;7.97;100.00
10606;BME280;5350;42.698;23.148;2023-04-04T02:48:37;92189.19;;;7.99;100.00
10606;BME280;5350;42.698;23.148;2023-04-04T02:51:05;92185.84;;;8.07;100.00
10606;BME280;5350;42.698;23.148;2023-04-04T02:53:32;92192.16;;;8.15;100.00
10606;BME280;5350;42.698;23.148;2023-04-04T02:56:01;92192.47;;;8.13;100.00
10606;BME280;5350;42.698;23.148;2023-04-04T02:58:28;92198.91;;;8.16;100.00
10606;BME280;5350;42.698;23.148;2023-04-04T03:00:55;92197.69;;;8.13;100.00
10606;BME280;5350;42.698;23.148;2023-04-04T03:03:21;92201.84;;;8.14;100.00
10606;BME280;5350;42.698;23.148;2023-04-04T03:05:48;92197.06;;;8.16;100.00
10606;BME280;5350;42.698;23.148;2023-04-04T03:08:17;92197.84;;;8.08;100.00
10606;BME280;5350;42.698;23.148;2023-04-04T03:10:44;92197.34;;;7.89;100.00
10606;BME280;5350;42.698;23.148;2023-04-04T03:13:11;92203.03;;;7.91;100.00
10606;BME280;5350;42.698;23.148;2023-04-04T03:15:38;92204.28;;;7.85;100.00
10606;BME280;5350;42.698;23.148;2023-04-04T03:18:05;92205.19;;;7.89;100.00
10606;BME280;5350;42.698;23.148;2023-04-04T03:20:32;92201.22;;;8.00;100.00
10606;BME280;5350;42.698;23.148;2023-04-04T03:22:58;92204.31;;;8.02;100.00
10606;BME280;5350;42.698;23.148;2023-04-04T03:25:27;92210.13;;;7.99;100.00
10606;BME280;5350;42.698;23.148;2023-04-04T03:27:53;92201.97;;;7.92;100.00
10606;BME280;5350;42.698;23.148;2023-04-04T03:30:20;92191.97;;;7.94;100.00
10606;BME280;5350;42.698;23.148;2023-04-04T03:32:47;92196.75;;;8.00;100.00
10606;BME280;5350;42.698;23.148;2023-04-04T03:35:15;92182.72;;;7.88;100.00
10606;BME280;5350;42.698;23.148;2023-04-04T03:37:41;92192.44;;;8.04;100.00
10606;BME280;5350;42.698;23.148;2023-04-04T03:40:08;92192.28;;;8.01;100.00
10606;BME280;5350;42.698;23.148;2023-04-04T03:42:37;92194.44;;;8.07;100.00
10606;BME280;5350;42.698;23.148;2023-04-04T03:45:04;92197.06;;;8.16;100.00
10606;BME280;5350;42.698;23.148;2023-04-04T03:47:31;92200.97;;;8.27;100.00
10606;BME280;5350;42.698;23.148;2023-04-04T03:49:58;92195.72;;;8.27;100.00
10606;BME280;5350;42.698;23.148;2023-04-04T03:52:25;92210.84;;;8.30;100.00
10606;BME280;5350;42.698;23.148;2023-04-04T03:54:52;92197.25;;;8.37;100.00
10606;BME280;5350;42.698;23.148;2023-04-04T03:57:19;92202.94;;;8.39;100.00
10606;BME280;5350;42.698;23.148;2023-04-04T03:59:47;92209.88;;;8.26;100.00
10606;BME280;5350;42.698;23.148;2023-04-04T04:02:13;92200.63;;;8.37;100.00
10606;BME280;5350;42.698;23.148;2023-04-04T04:04:40;92205.25;;;8.23;100.00
10606;BME280;5350;42.698;23.148;2023-04-04T04:07:07;92201.69;;;8.19;100.00
10606;BME280;5350;42.698;23.148;2023-04-04T04:09:34;92202.75;;;8.18;100.00
10606;BME280;5350;42.698;23.148;2023-04-04T04:12:00;92210.94;;;8.17;100.00
10606;BME280;5350;42.698;23.148;2023-04-04T04:14:27;92206.78;;;8.24;100.00
10606;BME280;5350;42.698;23.148;2023-04-04T04:16:55;92203.44;;;8.32;100.00
10606;BME280;5350;42.698;23.148;2023-04-04T04:19:22;92214.22;;;8.39;100.00
10606;BME280;5350;42.698;23.148;2023-04-04T04:21:49;92201.41;;;8.29;100.00
10606;BME280;5350;42.698;23.148;2023-04-04T04:24:15;92204.16;;;8.24;100.00
10606;BME280;5350;42.698;23.148;2023-04-04T04:26:42;92208.34;;;8.25;100.00
10606;BME280;5350;42.698;23.148;2023-04-04T04:29:09;92207.53;;;8.16;100.00
10606;BME280;5350;42.698;23.148;2023-04-04T04:31:36;92206.94;;;8.19;100.00
10606;BME280;5350;42.698;23.148;2023-04-04T04:34:05;92220.06;;;8.28;100.00
10606;BME280;5350;42.698;23.148;2023-04-04T04:36:33;92240.56;;;8.26;100.00
10606;BME280;5350;42.698;23.148;2023-04-04T04:39:00;92239.16;;;8.28;100.00
10606;BME280;5350;42.698;23.148;2023-04-04T04:41:27;92231.16;;;8.33;100.00
10606;BME280;5350;42.698;23.148;2023-04-04T04:43:54;92232.06;;;8.29;100.00
10606;BME280;5350;42.698;23.148;2023-04-04T04:46:20;92242.41;;;8.25;100.00
10606;BME280;5350;42.698;23.148;2023-04-04T04:48:47;92249.63;;;8.28;100.00
10606;BME280;5350;42.698;23.148;2023-04-04T04:51:15;92239.00;;;8.33;100.00
10606;BME280;5350;42.698;23.148;2023-04-04T04:53:42;92240.25;;;8.36;100.00
10606;BME280;5350;42.698;23.148;2023-04-04T04:56:09;92246.44;;;8.48;100.00
10606;BME280;5350;42.698;23.148;2023-04-04T04:58:36;92250.56;;;8.49;100.00
10606;BME280;5350;42.698;23.148;2023-04-04T05:01:02;92249.38;;;8.47;100.00
10606;BME280;5350;42.698;23.148;2023-04-04T05:03:29;92254.91;;;8.54;100.00
10606;BME280;5350;42.698;23.148;2023-04-04T05:05:56;92259.34;;;8.62;100.00
10606;BME280;5350;42.698;23.148;2023-04-04T05:08:24;92258.75;;;8.73;100.00
10606;BME280;5350;42.698;23.148;2023-04-04T05:10:50;92259.53;;;8.65;100.00
10606;BME280;5350;42.698;23.148;2023-04-04T05:13:19;92267.06;;;8.58;100.00
10606;BME280;5350;42.698;23.148;2023-04-04T05:15:46;92272.63;;;8.57;100.00
10606;BME280;5350;42.698;23.148;2023-04-04T05:18:13;92272.47;;;8.53;100.00
10606;BME280;5350;42.698;23.148;2023-04-04T05:20:39;92265.22;;;8.59;100.00
10606;BME280;5350;42.698;23.148;2023-04-04T05:23:06;92269.09;;;8.61;100.00
10606;BME280;5350;42.698;23.148;2023-04-04T05:25:34;92274.63;;;8.68;100.00
10606;BME280;5350;42.698;23.148;2023-04-04T05:28:01;92272.63;;;8.74;100.00
10606;BME280;5350;42.698;23.148;2023-04-04T05:30:28;92279.88;;;8.68;100.00
10606;BME280;5350;42.698;23.148;2023-04-04T05:32:55;92285.25;;;8.80;100.00
10606;BME280;5350;42.698;23.148;2023-04-04T05:35:21;92282.50;;;8.77;100.00
10606;BME280;5350;42.698;23.148;2023-04-04T05:37:49;92284.50;;;8.71;100.00
10606;BME280;5350;42.698;23.148;2023-04-04T05:40:17;92286.19;;;8.67;100.00
10606;BME280;5350;42.698;23.148;2023-04-04T05:42:52;92285.44;;;8.75;100.00
10606;BME280;5350;42.698;23.148;2023-04-04T05:45:19;92279.88;;;8.85;100.00
10606;BME280;5350;42.698;23.148;2023-04-04T05:47:46;92288.19;;;8.88;100.00
10606;BME280;5350;42.698;23.148;2023-04-04T05:50:13;92287.59;;;8.91;100.00
10606;BME280;5350;42.698;23.148;2023-04-04T05:52:40;92298.34;;;8.89;100.00
10606;BME280;5350;42.698;23.148;2023-04-04T05:55:07;92299.00;;;8.95;100.00
10606;BME280;5350;42.698;23.148;2023-04-04T05:57:34;92297.75;;;9.01;100.00
10606;BME280;5350;42.698;23.148;2023-04-04T06:00:02;92303.91;;;9.05;100.00
10606;BME280;5350;42.698;23.148;2023-04-04T06:02:30;92300.19;;;9.06;100.00
10606;BME280;5350;42.698;23.148;2023-04-04T06:04:57;92300.19;;;9.14;100.00
10606;BME280;5350;42.698;23.148;2023-04-04T06:07:23;92303.44;;;9.20;100.00
10606;BME280;5350;42.698;23.148;2023-04-04T06:09:50;92303.13;;;9.21;100.00
10606;BME280;5350;42.698;23.148;2023-04-04T06:12:17;92303.91;;;9.05;100.00
10606;BME280;5350;42.698;23.148;2023-04-04T06:14:43;92310.09;;;8.92;100.00
10606;BME280;5350;42.698;23.148;2023-04-04T06:17:11;92305.63;;;8.75;100.00
10606;BME280;5350;42.698;23.148;2023-04-04T06:19:38;92308.53;;;8.48;100.00
10606;BME280;5350;42.698;23.148;2023-04-04T06:22:05;92321.72;;;8.17;100.00
10606;BME280;5350;42.698;23.148;2023-04-04T06:24:31;92317.94;;;7.92;100.00
10606;BME280;5350;42.698;23.148;2023-04-04T06:26:58;92323.34;;;7.96;100.00
10606;BME280;5350;42.698;23.148;2023-04-04T06:29:26;92332.69;;;7.80;100.00
10606;BME280;5350;42.698;23.148;2023-04-04T06:31:52;92332.69;;;7.80;100.00
10606;BME280;5350;42.698;23.148;2023-04-04T06:34:21;92330.78;;;7.72;100.00
10606;BME280;5350;42.698;23.148;2023-04-04T06:36:48;92329.38;;;7.66;100.00
10606;BME280;5350;42.698;23.148;2023-04-04T06:39:14;92351.97;;;7.31;100.00
10606;BME280;5350;42.698;23.148;2023-04-04T06:41:41;92354.19;;;7.38;100.00
10606;BME280;5350;42.698;23.148;2023-04-04T06:44:08;92350.25;;;7.26;100.00
10606;BME280;5350;42.698;23.148;2023-04-04T06:46:36;92365.50;;;7.02;100.00
10606;BME280;5350;42.698;23.148;2023-04-04T06:49:03;92371.13;;;6.74;100.00
10606;BME280;5350;42.698;23.148;2023-04-04T06:51:32;92370.75;;;6.67;100.00
10606;BME280;5350;42.698;23.148;2023-04-04T06:53:59;92380.31;;;6.71;100.00
10606;BME280;5350;42.698;23.148;2023-04-04T06:56:26;92385.38;;;6.54;100.00
10606;BME280;5350;42.698;23.148;2023-04-04T06:58:52;92399.31;;;6.63;100.00
10606;BME280;5350;42.698;23.148;2023-04-04T07:01:19;92401.22;;;6.71;100.00
10606;BME280;5350;42.698;23.148;2023-04-04T07:03:46;92408.94;;;6.76;100.00
10606;BME280;5350;42.698;23.148;2023-04-04T07:06:13;92410.06;;;6.48;100.00
10606;BME280;5350;42.698;23.148;2023-04-04T07:08:41;92415.47;;;6.52;100.00
10606;BME280;5350;42.698;23.148;2023-04-04T07:11:08;92424.47;;;6.45;100.00
10606;BME280;5350;42.698;23.148;2023-04-04T07:13:35;92441.97;;;6.45;100.00
10606;BME280;5350;42.698;23.148;2023-04-04T07:16:02;92432.41;;;6.27;100.00
10606;BME280;5350;42.698;23.148;2023-04-04T07:18:28;92442.84;;;6.13;100.00
10606;BME280;5350;42.698;23.148;2023-04-04T07:20:55;92445.84;;;6.20;100.00
10606;BME280;5350;42.698;23.148;2023-04-04T07:23:22;92458.44;;;6.05;100.00
10606;BME280;5350;42.698;23.148;2023-04-04T07:25:50;92460.63;;;5.98;100.00
10606;BME280;5350;42.698;23.148;2023-04-04T07:28:17;92463.91;;;6.03;100.00
10606;BME280;5350;42.698;23.148;2023-04-04T07:30:44;92471.28;;;6.15;100.00
10606;BME280;5350;42.698;23.148;2023-04-04T07:33:11;92473.41;;;6.13;100.00
10606;BME280;5350;42.698;23.148;2023-04-04T07:35:37;92489.66;;;6.10;100.00
10606;BME280;5350;42.698;23.148;2023-04-04T07:38:04;92486.56;;;6.08;100.00
10606;BME280;5350;42.698;23.148;2023-04-04T07:40:31;92487.94;;;6.19;100.00
10606;BME280;5350;42.698;23.148;2023-04-04T07:42:59;92494.09;;;6.09;100.00
10606;BME280;5350;42.698;23.148;2023-04-04T07:45:26;92491.97;;;6.11;100.00
10606;BME280;5350;42.698;23.148;2023-04-04T07:47:52;92492.38;;;6.05;100.00
10606;BME280;5350;42.698;23.148;2023-04-04T07:50:20;92495.59;;;5.97;100.00
10606;BME280;5350;42.698;23.148;2023-04-04T07:52:48;92502.81;;;6.05;100.00
10606;BME280;5350;42.698;23.148;2023-04-04T07:55:16;92501.16;;;6.09;100.00
10606;BME280;5350;42.698;23.148;2023-04-04T07:57:43;92504.56;;;6.23;100.00
10606;BME280;5350;42.698;23.148;2023-04-04T08:00:12;92508.69;;;6.24;100.00
10606;BME280;5350;42.698;23.148;2023-04-04T08:02:39;92515.19;;;6.13;100.00
10606;BME280;5350;42.698;23.148;2023-04-04T08:05:07;92517.69;;;6.04;100.00
10606;BME280;5350;42.698;23.148;2023-04-04T08:07:34;92507.41;;;5.94;100.00
10606;BME280;5350;42.698;23.148;2023-04-04T08:10:00;92517.28;;;5.97;100.00
10606;BME280;5350;42.698;23.148;2023-04-04T08:12:27;92516.59;;;5.92;100.00
10606;BME280;5350;42.698;23.148;2023-04-04T08:14:54;92524.97;;;5.89;100.00
10606;BME280;5350;42.698;23.148;2023-04-04T08:17:22;92516.09;;;5.90;100.00
10606;BME280;5350;42.698;23.148;2023-04-04T08:19:49;92540.63;;;5.89;100.00
10606;BME280;5350;42.698;23.148;2023-04-04T08:22:15;92547.31;;;5.95;100.00
10606;BME280;5350;42.698;23.148;2023-04-04T08:24:42;92550.03;;;5.71;100.00
10606;BME280;5350;42.698;23.148;2023-04-04T08:27:09;92549.28;;;5.52;100.00
10606;BME280;5350;42.698;23.148;2023-04-04T08:29:36;92545.09;;;5.51;100.00
10606;BME280;5350;42.698;23.148;2023-04-04T08:32:03;92556.41;;;5.46;100.00
10606;BME280;5350;42.698;23.148;2023-04-04T08:34:31;92563.00;;;5.39;100.00
10606;BME280;5350;42.698;23.148;2023-04-04T08:36:59;92548.16;;;5.21;100.00
10606;BME280;5350;42.698;23.148;2023-04-04T08:39:25;92564.63;;;5.16;100.00
10606;BME280;5350;42.698;23.148;2023-04-04T08:42:01;92574.50;;;5.19;100.00
10606;BME280;5350;42.698;23.148;2023-04-04T08:44:30;92585.41;;;5.03;100.00
10606;BME280;5350;42.698;23.148;2023-04-04T08:46:58;92580.75;;;5.00;100.00
10606;BME280;5350;42.698;23.148;2023-04-04T08:49:25;92577.66;;;5.16;100.00
10606;BME280;5350;42.698;23.148;2023-04-04T08:51:56;92583.78;;;5.07;100.00
10606;BME280;5350;42.698;23.148;2023-04-04T08:54:24;92585.16;;;4.99;100.00
10606;BME280;5350;42.698;23.148;2023-04-04T08:56:52;92588.59;;;4.95;100.00
10606;BME280;5350;42.698;23.148;2023-04-04T08:59:20;92590.22;;;4.91;100.00
10606;BME280;5350;42.698;23.148;2023-04-04T09:01:46;92593.53;;;4.77;100.00
10606;BME280;5350;42.698;23.148;2023-04-04T09:04:14;92593.81;;;4.95;100.00
10606;BME280;5350;42.698;23.148;2023-04-04T09:06:41;92603.78;;;4.69;100.00
10606;BME280;5350;42.698;23.148;2023-04-04T09:09:11;92607.97;;;4.65;100.00
10606;BME280;5350;42.698;23.148;2023-04-04T09:11:39;92610.09;;;4.63;100.00
10606;BME280;5350;42.698;23.148;2023-04-04T09:14:06;92609.81;;;4.64;100.00
10606;BME280;5350;42.698;23.148;2023-04-04T09:16:32;92601.78;;;4.61;100.00
10606;BME280;5350;42.698;23.148;2023-04-04T09:18:59;92603.13;;;4.53;100.00
10606;BME280;5350;42.698;23.148;2023-04-04T09:21:26;92617.31;;;4.42;100.00
10606;BME280;5350;42.698;23.148;2023-04-04T09:23:59;92610.78;;;4.45;100.00
10606;BME280;5350;42.698;23.148;2023-04-04T09:26:28;92611.88;;;4.39;100.00
10606;BME280;5350;42.698;23.148;2023-04-04T09:28:55;92609.41;;;4.52;100.00
10606;BME280;5350;42.698;23.148;2023-04-04T09:31:23;92606.25;;;4.55;100.00
10606;BME280;5350;42.698;23.148;2023-04-04T09:33:50;92615.84;;;4.60;100.00
10606;BME280;5350;42.698;23.148;2023-04-04T09:36:17;92604.13;;;4.57;100.00
10606;BME280;5350;42.698;23.148;2023-04-04T09:38:43;92613.28;;;4.55;100.00
10606;BME280;5350;42.698;23.148;2023-04-04T09:41:14;92618.44;;;4.60;100.00
10606;BME280;5350;42.698;23.148;2023-04-04T09:43:43;92626.25;;;4.60;100.00
10606;BME280;5350;42.698;23.148;2023-04-04T09:46:10;92620.25;;;4.36;100.00
10606;BME280;5350;42.698;23.148;2023-04-04T09:48:37;92626.16;;;4.46;100.00
10606;BME280;5350;42.698;23.148;2023-04-04T09:51:05;92627.03;;;4.60;100.00
10606;BME280;5350;42.698;23.148;2023-04-04T09:53:33;92629.22;;;4.77;100.00
10606;BME280;5350;42.698;23.148;2023-04-04T09:56:01;92639.91;;;4.75;100.00
10606;BME280;5350;42.698;23.148;2023-04-04T09:58:29;92635.06;;;4.64;100.00
10606;BME280;5350;42.698;23.148;2023-04-04T10:00:59;92634.59;;;4.57;100.00
10606;BME280;5350;42.698;23.148;2023-04-04T10:03:27;92632.16;;;4.42;100.00
10606;BME280;5350;42.698;23.148;2023-04-04T10:05:55;92630.91;;;4.34;100.00
10606;BME280;5350;42.698;23.148;2023-04-04T10:08:23;92640.59;;;4.29;100.00
10606;BME280;5350;42.698;23.148;2023-04-04T10:10:51;92644.72;;;4.35;100.00
10606;BME280;5350;42.698;23.148;2023-04-04T10:13:23;92630.19;;;4.29;100.00
10606;BME280;5350;42.698;23.148;2023-04-04T10:15:53;92626.03;;;4.28;100.00
10606;BME280;5350;42.698;23.148;2023-04-04T10:18:22;92631.66;;;4.40;100.00
10606;BME280;5350;42.698;23.148;2023-04-04T10:20:50;92634.16;;;4.50;100.00
10606;BME280;5350;42.698;23.148;2023-04-04T10:23:18;92634.22;;;4.45;100.00
10606;BME280;5350;42.698;23.148;2023-04-04T10:25:45;92639.28;;;4.60;100.00
10606;BME280;5350;42.698;23.148;2023-04-04T10:28:11;92646.09;;;4.56;100.00
10606;BME280;5350;42.698;23.148;2023-04-04T10:30:41;92638.97;;;4.66;100.00
10606;BME280;5350;42.698;23.148;2023-04-04T10:33:18;92648.97;;;4.54;100.00
10606;BME280;5350;42.698;23.148;2023-04-04T10:35:50;92651.25;;;4.61;100.00
10606;BME280;5350;42.698;23.148;2023-04-04T10:38:20;92647.78;;;4.70;100.00
10606;BME280;5350;42.698;23.148;2023-04-04T10:40:50;92659.56;;;4.86;100.00
10606;BME280;5350;42.698;23.148;2023-04-04T10:43:23;92656.47;;;4.61;100.00
10606;BME280;5350;42.698;23.148;2023-04-04T10:45:50;92668.78;;;4.79;100.00
10606;BME280;5350;42.698;23.148;2023-04-04T10:48:18;92668.13;;;4.92;100.00
10606;BME280;5350;42.698;23.148;2023-04-04T10:50:48;92666.34;;;5.11;100.00
10606;BME280;5350;42.698;23.148;2023-04-04T10:53:15;92683.09;;;5.05;100.00
10606;BME280;5350;42.698;23.148;2023-04-04T10:55:42;92670.50;;;4.65;100.00
10606;BME280;5350;42.698;23.148;2023-04-04T10:58:11;92669.31;;;4.76;100.00
10606;BME280;5350;42.698;23.148;2023-04-04T11:00:48;92674.09;;;4.69;100.00
10606;BME280;5350;42.698;23.148;2023-04-04T11:03:16;92682.03;;;4.54;100.00
10606;BME280;5350;42.698;23.148;2023-04-04T11:05:42;92685.78;;;4.43;100.00
10606;BME280;5350;42.698;23.148;2023-04-04T11:08:16;92696.47;;;4.07;100.00
10606;BME280;5350;42.698;23.148;2023-04-04T11:10:46;92698.13;;;3.93;100.00
10606;BME280;5350;42.698;23.148;2023-04-04T11:13:15;92698.66;;;3.90;100.00
10606;BME280;5350;42.698;23.148;2023-04-04T11:15:51;92697.91;;;3.90;100.00
10606;BME280;5350;42.698;23.148;2023-04-04T11:18:19;92692.63;;;4.00;100.00
10606;BME280;5350;42.698;23.148;2023-04-04T11:20:47;92699.66;;;3.94;100.00
10606;BME280;5350;42.698;23.148;2023-04-04T11:23:17;92704.66;;;3.91;100.00
10606;BME280;5350;42.698;23.148;2023-04-04T11:25:49;92701.50;;;3.94;100.00
10606;BME280;5350;42.698;23.148;2023-04-04T11:28:27;92694.47;;;3.94;100.00
10606;BME280;5350;42.698;23.148;2023-04-04T11:31:25;92697.66;;;4.25;100.00
10606;BME280;5350;42.698;23.148;2023-04-04T11:33:54;92703.81;;;4.34;100.00
10606;BME280;5350;42.698;23.148;2023-04-04T11:36:52;92711.03;;;4.09;100.00
10606;BME280;5350;42.698;23.148;2023-04-04T11:39:27;92712.13;;;4.02;100.00
10606;BME280;5350;42.698;23.148;2023-04-04T11:41:56;92711.56;;;4.11;100.00
10606;BME280;5350;42.698;23.148;2023-04-04T11:44:29;92715.75;;;4.07;100.00
10606;BME280;5350;42.698;23.148;2023-04-04T11:46:59;92720.44;;;4.04;100.00
10606;BME280;5350;42.698;23.148;2023-04-04T11:49:29;92720.44;;;4.04;100.00
10606;BME280;5350;42.698;23.148;2023-04-04T11:51:56;92715.75;;;4.07;100.00
10606;BME280;5350;42.698;23.148;2023-04-04T11:54:28;92722.13;;;3.80;100.00
10606;BME280;5350;42.698;23.148;2023-04-04T11:56:56;92719.16;;;3.53;100.00
10606;BME280;5350;42.698;23.148;2023-04-04T11:59:23;92710.31;;;3.54;100.00
10606;BME280;5350;42.698;23.148;2023-04-04T12:01:50;92712.44;;;3.47;100.00
10606;BME280;5350;42.698;23.148;2023-04-04T12:04:17;92715.53;;;3.54;100.00
10606;BME280;5350;42.698;23.148;2023-04-04T12:06:46;92716.59;;;3.48;100.00
10606;BME280;5350;42.698;23.148;2023-04-04T12:09:15;92722.25;;;3.55;100.00
10606;BME280;5350;42.698;23.148;2023-04-04T12:11:46;92723.91;;;3.41;100.00
10606;BME280;5350;42.698;23.148;2023-04-04T12:14:17;92717.34;;;3.49;100.00
10606;BME280;5350;42.698;23.148;2023-04-04T12:16:46;92717.63;;;3.52;100.00
10606;BME280;5350;42.698;23.148;2023-04-04T12:19:14;92724.81;;;3.65;100.00
10606;BME280;5350;42.698;23.148;2023-04-04T12:21:40;92721.47;;;3.55;100.00
10606;BME280;5350;42.698;23.148;2023-04-04T12:24:08;92719.44;;;3.52;100.00
10606;BME280;5350;42.698;23.148;2023-04-04T12:26:35;92714.25;;;3.47;100.00
10606;BME280;5350;42.698;23.148;2023-04-04T12:29:04;92714.00;;;3.43;100.00
10606;BME280;5350;42.698;23.148;2023-04-04T12:31:32;92714.78;;;3.44;100.00
10606;BME280;5350;42.698;23.148;2023-04-04T12:33:59;92717.63;;;3.52;100.00
10606;BME280;5350;42.698;23.148;2023-04-04T12:36:28;92717.13;;;3.40;100.00
10606;BME280;5350;42.698;23.148;2023-04-04T12:38:56;92723.97;;;3.21;100.00
10606;BME280;5350;42.698;23.148;2023-04-04T12:41:23;92718.28;;;3.09;100.00
10606;BME280;5350;42.698;23.148;2023-04-04T12:43:50;92724.50;;;3.23;100.00
10606;BME280;5350;42.698;23.148;2023-04-04T12:46:24;92716.19;;;3.21;100.00
10606;BME280;5350;42.698;23.148;2023-04-04T12:48:51;92720.91;;;3.04;100.00
10606;BME280;5350;42.698;23.148;2023-04-04T12:51:18;92728.69;;;2.99;100.00
10606;BME280;5350;42.698;23.148;2023-04-04T12:53:51;92727.69;;;2.95;100.00
10606;BME280;5350;42.698;23.148;2023-04-04T12:56:18;92732.31;;;3.08;100.00
10606;BME280;5350;42.698;23.148;2023-04-04T12:58:45;92733.88;;;3.14;100.00
10606;BME280;5350;42.698;23.148;2023-04-04T13:01:14;92735.63;;;3.23;100.00
10606;BME280;5350;42.698;23.148;2023-04-04T13:03:42;92736.97;;;3.16;100.00